createdAt,value
2022-08-31T00:00:32.568Z,21.10
2022-08-31T00:03:18.737Z,21.10
2022-08-31T00:05:48.207Z,21.20
2022-08-31T00:08:17.147Z,21.10
2022-08-31T00:10:46.636Z,21.00
2022-08-31T00:13:16.243Z,20.90
2022-08-31T00:15:47.672Z,21.00
2022-08-31T00:18:16.196Z,21.00
2022-08-31T00:20:44.765Z,20.90
2022-08-31T00:23:15.662Z,20.90
2022-08-31T00:25:46.265Z,20.90
2022-08-31T00:28:16.308Z,20.90
2022-08-31T00:30:45.261Z,20.90
2022-08-31T00:33:15.343Z,20.90
2022-08-31T00:35:44.536Z,20.80
2022-08-31T00:38:13.574Z,20.80
2022-08-31T00:40:46.156Z,20.90
2022-08-31T00:43:30.461Z,20.80
2022-08-31T00:45:58.981Z,20.70
2022-08-31T00:48:28.774Z,20.70
2022-08-31T00:50:57.640Z,20.60
2022-08-31T00:53:27.357Z,20.70
2022-08-31T00:55:55.752Z,20.70
2022-08-31T00:58:24.280Z,20.80
2022-08-31T01:00:52.968Z,20.70
2022-08-31T01:03:22.989Z,20.70
2022-08-31T01:05:53.359Z,20.80
2022-08-31T01:08:27.167Z,20.70
2022-08-31T01:11:00.458Z,20.70
2022-08-31T01:13:30.388Z,20.70
2022-08-31T01:16:03.054Z,20.60
2022-08-31T01:18:32.291Z,20.60
2022-08-31T01:21:20.423Z,20.60
2022-08-31T01:23:50.683Z,20.60
2022-08-31T01:26:21.054Z,20.60
2022-08-31T01:28:49.857Z,20.50
2022-08-31T01:31:26.587Z,20.50
2022-08-31T01:33:55.692Z,20.50
2022-08-31T01:36:27.227Z,20.50
2022-08-31T01:38:56.823Z,20.50
2022-08-31T01:41:25.203Z,20.50
2022-08-31T01:43:54.650Z,20.50
2022-08-31T01:46:22.928Z,20.40
2022-08-31T01:48:52.304Z,20.40
2022-08-31T01:51:22.426Z,20.40
2022-08-31T01:53:53.205Z,20.40
2022-08-31T01:56:25.917Z,20.40
2022-08-31T01:58:54.590Z,20.40
2022-08-31T02:01:32.890Z,20.30
2022-08-31T02:04:03.993Z,20.40
2022-08-31T02:06:32.839Z,20.50
2022-08-31T02:09:01.371Z,20.50
2022-08-31T02:11:31.085Z,20.40
2022-08-31T02:13:59.713Z,20.40
2022-08-31T02:16:28.034Z,20.30
2022-08-31T02:18:56.546Z,20.30
2022-08-31T02:21:25.001Z,20.20
2022-08-31T02:23:53.471Z,20.30
2022-08-31T02:26:22.271Z,20.20
2022-08-31T02:28:51.906Z,20.20
2022-08-31T02:31:20.462Z,20.20
2022-08-31T02:33:48.773Z,20.10
2022-08-31T02:36:17.155Z,20.10
2022-08-31T02:38:45.597Z,20.10
2022-08-31T02:41:13.917Z,20.10
2022-08-31T02:43:42.572Z,20.10
2022-08-31T02:46:12.619Z,20.00
2022-08-31T02:48:41.013Z,20.00
2022-08-31T02:51:11.440Z,20.00
2022-08-31T02:53:40.290Z,20.00
2022-08-31T02:56:09.284Z,19.90
2022-08-31T02:58:37.853Z,19.90
2022-08-31T03:01:06.248Z,19.90
2022-08-31T03:03:36.748Z,19.90
2022-08-31T03:06:05.603Z,19.80
2022-08-31T03:08:33.980Z,19.90
2022-08-31T03:11:02.444Z,19.90
2022-08-31T03:13:30.623Z,19.90
2022-08-31T03:15:59.033Z,19.90
2022-08-31T03:18:27.503Z,19.80
2022-08-31T03:20:56.964Z,19.80
2022-08-31T03:23:25.780Z,19.80
2022-08-31T03:25:54.332Z,19.80
2022-08-31T03:28:22.796Z,19.80
2022-08-31T03:30:51.329Z,19.80
2022-08-31T03:33:20.394Z,19.80
2022-08-31T03:35:49.095Z,19.80
2022-08-31T03:38:19.763Z,19.70
2022-08-31T03:40:48.563Z,19.80
2022-08-31T03:43:17.082Z,19.70
2022-08-31T03:45:45.488Z,19.70
2022-08-31T03:48:13.905Z,19.70
2022-08-31T03:50:42.804Z,19.70
2022-08-31T03:53:11.657Z,19.70
2022-08-31T03:55:43.503Z,19.70
2022-08-31T03:58:12.996Z,19.70
2022-08-31T04:00:43.758Z,19.70
2022-08-31T04:03:14.068Z,19.70
2022-08-31T04:05:44.519Z,19.70
2022-08-31T04:08:13.004Z,19.60
2022-08-31T04:10:43.510Z,19.60
2022-08-31T04:13:12.252Z,19.60
2022-08-31T04:15:41.160Z,19.60
2022-08-31T04:18:09.786Z,19.60
2022-08-31T04:20:39.831Z,19.60
2022-08-31T04:23:08.560Z,19.60
2022-08-31T04:25:39.195Z,19.60
2022-08-31T04:28:10.350Z,19.50
2022-08-31T04:30:43.231Z,19.50
2022-08-31T04:33:11.908Z,19.50
2022-08-31T04:35:41.152Z,19.50
2022-08-31T04:38:10.132Z,19.50
2022-08-31T04:40:39.601Z,19.40
2022-08-31T04:43:10.228Z,19.40
2022-08-31T04:45:44.589Z,19.30
2022-08-31T04:48:14.763Z,19.50
2022-08-31T04:50:43.390Z,19.40
2022-08-31T04:53:12.585Z,19.40
2022-08-31T04:55:41.663Z,19.30
2022-08-31T04:58:12.924Z,19.30
2022-08-31T05:00:43.669Z,19.30
2022-08-31T05:03:12.063Z,19.30
2022-08-31T05:05:40.768Z,19.30
2022-08-31T05:08:09.357Z,19.30
2022-08-31T05:10:40.383Z,19.30
2022-08-31T05:13:10.063Z,19.20
2022-08-31T05:15:43.335Z,19.30
2022-08-31T05:18:12.180Z,19.30
2022-08-31T05:20:40.714Z,19.20
2022-08-31T05:23:10.716Z,19.20
2022-08-31T05:25:40.630Z,19.20
2022-08-31T05:28:10.889Z,19.10
2022-08-31T05:30:39.374Z,19.20
2022-08-31T05:33:07.981Z,19.10
2022-08-31T05:35:37.563Z,19.10
2022-08-31T05:38:05.805Z,19.20
2022-08-31T05:40:34.310Z,19.20
2022-08-31T05:43:02.753Z,19.20
2022-08-31T05:45:32.396Z,19.10
2022-08-31T05:48:00.769Z,19.10
2022-08-31T05:50:29.077Z,19.10
2022-08-31T05:52:57.512Z,19.10
2022-08-31T05:55:25.862Z,19.10
2022-08-31T05:57:54.079Z,19.10
2022-08-31T06:00:22.901Z,19.10
2022-08-31T06:02:53.986Z,19.20
2022-08-31T06:05:22.716Z,19.20
2022-08-31T06:07:51.396Z,19.20
2022-08-31T06:10:20.880Z,19.30
2022-08-31T06:12:50.033Z,19.30
2022-08-31T06:15:18.437Z,19.30
2022-08-31T06:17:46.718Z,19.30
2022-08-31T06:20:18.023Z,19.30
2022-08-31T06:22:46.792Z,19.40
2022-08-31T06:25:19.405Z,19.40
2022-08-31T06:27:50.331Z,19.50
2022-08-31T06:30:22.070Z,19.40
2022-08-31T06:32:50.452Z,19.60
2022-08-31T06:35:20.009Z,19.60
2022-08-31T06:37:48.967Z,19.60
2022-08-31T06:40:18.291Z,19.60
2022-08-31T06:42:47.085Z,19.60
2022-08-31T06:45:15.440Z,19.70
2022-08-31T06:47:43.862Z,19.70
2022-08-31T06:50:13.546Z,19.70
2022-08-31T06:52:43.415Z,19.70
2022-08-31T06:55:12.347Z,19.80
2022-08-31T06:57:40.656Z,19.90
2022-08-31T07:00:10.029Z,19.80
2022-08-31T07:02:38.446Z,19.90
2022-08-31T07:05:08.422Z,20.00
2022-08-31T07:07:38.045Z,20.00
2022-08-31T07:10:10.439Z,19.90
2022-08-31T07:12:38.675Z,19.90
2022-08-31T07:15:07.641Z,19.70
2022-08-31T07:17:35.796Z,19.90
2022-08-31T07:20:05.088Z,19.90
2022-08-31T07:22:33.871Z,19.90
2022-08-31T07:25:02.201Z,20.00
2022-08-31T07:27:34.354Z,20.00
2022-08-31T07:30:02.734Z,20.00
2022-08-31T07:32:31.314Z,19.90
2022-08-31T07:35:00.953Z,20.00
2022-08-31T07:37:46.670Z,20.00
2022-08-31T07:40:32.770Z,20.10
2022-08-31T07:43:04.484Z,20.10
2022-08-31T07:45:37.290Z,20.10
2022-08-31T07:48:07.705Z,20.00
2022-08-31T07:50:41.542Z,20.00
2022-08-31T07:53:11.577Z,20.10
2022-08-31T07:55:40.108Z,20.10
2022-08-31T07:58:15.509Z,20.20
2022-08-31T08:00:47.676Z,20.20
2022-08-31T08:03:16.351Z,20.30
2022-08-31T08:05:45.169Z,20.30
2022-08-31T08:08:15.843Z,20.30
2022-08-31T08:10:52.329Z,20.40
2022-08-31T08:13:23.229Z,20.40
2022-08-31T08:15:52.478Z,20.50
2022-08-31T08:18:21.046Z,20.50
2022-08-31T08:20:49.639Z,20.60
2022-08-31T08:23:27.685Z,20.50
2022-08-31T08:25:57.776Z,20.50
2022-08-31T08:28:39.248Z,20.60
2022-08-31T08:31:14.214Z,20.70
2022-08-31T08:33:42.773Z,20.60
2022-08-31T08:36:11.371Z,20.70
2022-08-31T08:38:43.722Z,20.80
2022-08-31T08:41:15.317Z,20.90
2022-08-31T08:43:52.801Z,20.80
2022-08-31T08:46:36.828Z,20.80
2022-08-31T08:49:16.186Z,20.90
2022-08-31T08:51:45.998Z,21.00
2022-08-31T08:54:19.693Z,21.00
2022-08-31T08:56:49.388Z,21.20
2022-08-31T08:59:20.585Z,21.20
2022-08-31T09:01:53.055Z,21.10
2022-08-31T09:04:41.099Z,21.20
2022-08-31T09:07:24.191Z,21.20
2022-08-31T09:10:02.617Z,21.20
2022-08-31T09:12:42.151Z,21.30
2022-08-31T09:15:36.720Z,21.30
2022-08-31T09:18:18.926Z,21.30
2022-08-31T09:21:05.460Z,21.30
2022-08-31T09:23:38.779Z,21.40
2022-08-31T09:26:08.626Z,21.40
2022-08-31T09:28:39.009Z,21.50
2022-08-31T09:31:08.787Z,21.50
2022-08-31T09:33:51.072Z,21.50
2022-08-31T09:36:22.427Z,21.50
2022-08-31T09:38:51.897Z,21.70
2022-08-31T09:41:32.600Z,21.70
2022-08-31T09:44:34.254Z,21.80
2022-08-31T09:47:06.814Z,21.80
2022-08-31T09:49:37.936Z,21.80
2022-08-31T09:52:20.088Z,21.70
2022-08-31T09:55:14.060Z,21.80
2022-08-31T09:57:54.411Z,22.00
2022-08-31T10:00:45.074Z,22.00
2022-08-31T10:03:22.605Z,22.00
2022-08-31T10:05:54.720Z,22.10
2022-08-31T10:08:39.878Z,22.00
2022-08-31T10:11:13.462Z,22.00
2022-08-31T10:13:45.854Z,22.20
2022-08-31T10:16:25.743Z,22.20
2022-08-31T10:19:00.522Z,22.10
2022-08-31T10:21:38.427Z,22.20
2022-08-31T10:24:20.572Z,22.30
2022-08-31T10:26:54.295Z,22.30
2022-08-31T10:29:32.647Z,22.30
2022-08-31T10:32:07.231Z,22.40
2022-08-31T10:34:59.600Z,22.50
2022-08-31T10:37:36.590Z,22.50
2022-08-31T10:40:10.326Z,22.60
2022-08-31T10:42:44.466Z,22.60
2022-08-31T10:45:18.823Z,22.60
2022-08-31T10:47:49.577Z,22.60
2022-08-31T10:50:28.654Z,22.70
2022-08-31T10:53:06.365Z,22.80
2022-08-31T10:55:41.433Z,22.80
2022-08-31T10:58:20.986Z,22.80
2022-08-31T11:00:54.348Z,22.80
2022-08-31T11:03:42.537Z,22.90
2022-08-31T11:06:19.366Z,23.00
2022-08-31T11:08:57.415Z,22.90
2022-08-31T11:11:42.491Z,22.90
2022-08-31T11:14:58.539Z,23.00
2022-08-31T11:17:52.681Z,23.00
2022-08-31T11:20:56.962Z,22.90
2022-08-31T11:23:50.815Z,23.00
2022-08-31T11:26:50.979Z,23.10
2022-08-31T11:29:34.390Z,23.00
2022-08-31T11:32:13.719Z,23.20
2022-08-31T11:34:50.744Z,23.10
2022-08-31T11:37:55.537Z,23.20
2022-08-31T11:41:00.725Z,23.10
2022-08-31T11:43:52.055Z,23.10
2022-08-31T11:46:59.952Z,22.90
2022-08-31T11:49:46.715Z,22.80
2022-08-31T11:52:38.593Z,22.90
2022-08-31T11:55:21.098Z,23.20
2022-08-31T11:58:23.295Z,22.80
2022-08-31T12:00:58.426Z,22.90
2022-08-31T12:03:45.807Z,22.80
2022-08-31T12:06:46.909Z,23.00
2022-08-31T12:09:30.294Z,22.70
2022-08-31T12:12:06.672Z,23.00
2022-08-31T12:14:42.604Z,23.30
2022-08-31T12:17:22.924Z,23.20
2022-08-31T12:20:01.382Z,23.00
2022-08-31T12:23:30.140Z,23.00
2022-08-31T12:26:18.818Z,23.20
2022-08-31T12:29:10.876Z,22.90
2022-08-31T12:31:42.237Z,23.00
2022-08-31T12:34:17.788Z,23.20
2022-08-31T12:36:46.711Z,23.00
2022-08-31T12:39:23.714Z,23.00
2022-08-31T12:41:54.758Z,23.00
2022-08-31T12:44:24.918Z,23.00
2022-08-31T12:47:05.555Z,23.20
2022-08-31T12:49:53.903Z,23.40
2022-08-31T12:52:39.453Z,23.30
2022-08-31T12:55:25.445Z,23.00
2022-08-31T12:58:06.991Z,23.20
2022-08-31T13:00:39.511Z,23.30
2022-08-31T13:03:17.101Z,23.20
2022-08-31T13:06:02.321Z,23.10
2022-08-31T13:08:38.208Z,23.20
2022-08-31T13:11:22.873Z,23.10
2022-08-31T13:13:51.453Z,23.00
2022-08-31T13:16:20.167Z,22.90
2022-08-31T13:18:51.582Z,23.00
2022-08-31T13:21:23.522Z,23.10
2022-08-31T13:23:52.103Z,23.30
2022-08-31T13:26:23.114Z,23.20
2022-08-31T13:28:52.290Z,23.30
2022-08-31T13:31:23.490Z,23.30
2022-08-31T13:33:56.993Z,23.20
2022-08-31T13:36:32.836Z,23.30
2022-08-31T13:39:03.733Z,23.10
2022-08-31T13:41:36.489Z,22.90
2022-08-31T13:44:10.909Z,22.80
2022-08-31T13:46:44.496Z,23.00
2022-08-31T13:49:30.970Z,23.10
2022-08-31T13:51:59.466Z,23.30
2022-08-31T13:54:30.553Z,22.90
2022-08-31T13:57:19.627Z,23.00
2022-08-31T13:59:49.077Z,23.10
2022-08-31T14:02:36.839Z,22.90
2022-08-31T14:05:12.848Z,22.90
2022-08-31T14:07:59.140Z,22.70
2022-08-31T14:10:29.535Z,22.60
2022-08-31T14:13:02.568Z,22.70
2022-08-31T14:15:37.819Z,23.00
2022-08-31T14:18:23.773Z,23.20
2022-08-31T14:21:25.403Z,23.30
2022-08-31T14:24:00.511Z,23.50
2022-08-31T14:26:30.217Z,23.40
2022-08-31T14:29:01.153Z,23.40
2022-08-31T14:31:34.007Z,23.20
2022-08-31T14:34:22.134Z,23.10
2022-08-31T14:36:57.685Z,23.30
2022-08-31T14:39:30.816Z,23.40
2022-08-31T14:42:00.764Z,23.40
2022-08-31T14:44:32.741Z,23.20
2022-08-31T14:47:01.339Z,23.20
2022-08-31T14:49:35.321Z,23.30
2022-08-31T14:52:07.002Z,23.20
2022-08-31T14:54:37.466Z,23.40
2022-08-31T14:57:09.673Z,23.10
2022-08-31T14:59:39.727Z,23.20
2022-08-31T15:02:10.105Z,23.20
2022-08-31T15:04:42.328Z,23.10
2022-08-31T15:07:16.694Z,23.20
2022-08-31T15:09:47.779Z,23.40
2022-08-31T15:12:19.294Z,22.90
2022-08-31T15:14:47.585Z,23.20
2022-08-31T15:17:20.519Z,23.10
2022-08-31T15:19:54.697Z,23.30
2022-08-31T15:22:26.279Z,23.20
2022-08-31T15:24:57.824Z,23.30
2022-08-31T15:27:29.321Z,23.20
2022-08-31T15:30:02.545Z,23.20
2022-08-31T15:32:31.655Z,23.40
2022-08-31T15:35:00.216Z,23.10
2022-08-31T15:37:32.117Z,23.20
2022-08-31T15:40:03.519Z,23.40
2022-08-31T15:42:40.016Z,23.40
2022-08-31T15:45:09.335Z,23.40
2022-08-31T15:47:57.183Z,23.40
2022-08-31T15:50:32.107Z,23.50
2022-08-31T15:53:08.923Z,23.40
2022-08-31T15:55:40.343Z,23.40
2022-08-31T15:58:09.586Z,23.40
2022-08-31T16:00:42.097Z,23.40
2022-08-31T16:03:11.209Z,23.40
2022-08-31T16:05:39.923Z,23.30
2022-08-31T16:08:11.413Z,23.30
2022-08-31T16:10:42.495Z,23.30
2022-08-31T16:13:11.345Z,23.10
2022-08-31T16:15:40.106Z,23.20
2022-08-31T16:18:09.791Z,23.20
2022-08-31T16:20:39.138Z,23.30
2022-08-31T16:23:07.562Z,23.30
2022-08-31T16:25:47.542Z,23.30
2022-08-31T16:28:17.505Z,23.40
2022-08-31T16:30:46.247Z,23.10
2022-08-31T16:33:14.515Z,23.30
2022-08-31T16:35:44.669Z,23.30
2022-08-31T16:38:13.453Z,23.30
2022-08-31T16:40:44.035Z,23.40
2022-08-31T16:43:13.057Z,23.30
2022-08-31T16:45:42.443Z,23.20
2022-08-31T16:48:29.460Z,23.40
2022-08-31T16:51:01.779Z,23.40
2022-08-31T16:53:30.522Z,23.30
2022-08-31T16:56:01.686Z,23.30
2022-08-31T17:01:23.870Z,23.30
2022-08-31T17:03:55.847Z,23.30
2022-08-31T17:06:24.953Z,23.30
2022-08-31T17:08:57.586Z,23.30
2022-08-31T17:11:32.106Z,23.40
2022-08-31T17:14:01.752Z,23.40
2022-08-31T17:16:32.178Z,23.40
2022-08-31T17:19:00.663Z,23.50
2022-08-31T17:21:31.773Z,23.40
2022-08-31T17:24:02.114Z,23.20
2022-08-31T17:26:34.600Z,23.30
2022-08-31T17:29:05.357Z,23.20
2022-08-31T17:31:35.696Z,23.30
2022-08-31T17:34:04.492Z,23.30
2022-08-31T17:36:37.284Z,23.30
2022-08-31T17:39:07.253Z,23.20
2022-08-31T17:41:37.735Z,23.20
2022-08-31T17:44:06.702Z,23.30
2022-08-31T17:46:35.359Z,23.30
2022-08-31T17:49:04.580Z,23.20
2022-08-31T17:51:34.971Z,23.10
2022-08-31T17:54:05.085Z,23.10
2022-08-31T17:56:35.842Z,23.10
2022-08-31T17:59:05.766Z,23.20
2022-08-31T18:01:35.878Z,23.10
2022-08-31T18:04:05.764Z,23.10
2022-08-31T18:06:34.405Z,23.00
2022-08-31T18:09:02.813Z,23.00
2022-08-31T18:11:31.077Z,23.00
2022-08-31T18:13:59.718Z,23.10
2022-08-31T18:16:30.163Z,23.10
2022-08-31T18:18:58.595Z,23.00
2022-08-31T18:21:27.081Z,22.90
2022-08-31T18:23:55.728Z,23.00
2022-08-31T18:26:26.257Z,22.90
2022-08-31T18:28:54.794Z,22.90
2022-08-31T18:31:30.642Z,23.00
2022-08-31T18:34:00.760Z,23.00
2022-08-31T18:36:29.849Z,22.90
2022-08-31T18:38:59.786Z,22.90
2022-08-31T18:41:46.590Z,22.90
2022-08-31T18:44:33.601Z,22.80
2022-08-31T18:47:04.115Z,22.80
2022-08-31T18:49:38.757Z,22.70
2022-08-31T18:52:09.641Z,22.70
2022-08-31T18:54:37.902Z,22.70
2022-08-31T18:57:06.311Z,22.70
2022-08-31T18:59:34.586Z,22.70
2022-08-31T19:02:03.150Z,22.70
2022-08-31T19:04:33.272Z,22.70
2022-08-31T19:07:01.827Z,22.70
2022-08-31T19:09:30.484Z,22.70
2022-08-31T19:12:02.135Z,22.60
2022-08-31T19:14:33.665Z,22.50
2022-08-31T19:17:03.806Z,22.60
2022-08-31T19:19:34.354Z,22.60
2022-08-31T19:22:02.948Z,22.60
2022-08-31T19:24:32.988Z,22.70
2022-08-31T19:27:01.807Z,22.70
2022-08-31T19:29:31.438Z,22.60
2022-08-31T19:32:01.444Z,22.60
2022-08-31T19:34:31.577Z,22.60
2022-08-31T19:37:02.117Z,22.60
2022-08-31T19:39:37.082Z,22.60
2022-08-31T19:42:07.565Z,22.60
2022-08-31T19:47:26.544Z,22.50
2022-08-31T19:49:55.120Z,22.50
2022-08-31T19:52:25.760Z,22.60
2022-08-31T19:54:54.108Z,22.60
2022-08-31T19:57:22.743Z,22.60
2022-08-31T19:59:51.195Z,22.50
2022-08-31T20:02:19.960Z,22.60
2022-08-31T20:04:48.313Z,22.60
2022-08-31T20:07:17.112Z,22.60
2022-08-31T20:09:47.374Z,22.60
2022-08-31T20:12:17.221Z,22.50
2022-08-31T20:14:45.840Z,22.50
2022-08-31T20:17:14.745Z,22.50
2022-08-31T20:19:43.037Z,22.60
2022-08-31T20:22:12.469Z,22.40
2022-08-31T20:24:43.626Z,22.40
2022-08-31T20:27:18.786Z,22.40
2022-08-31T20:29:48.062Z,22.40
2022-08-31T20:32:16.571Z,22.50
2022-08-31T20:34:45.099Z,22.40
2022-08-31T20:37:14.121Z,22.30
2022-08-31T20:39:43.008Z,22.50
2022-08-31T20:42:12.999Z,22.40
2022-08-31T20:44:43.476Z,22.40
2022-08-31T20:47:40.247Z,22.40
2022-08-31T20:50:11.574Z,22.40
2022-08-31T20:52:40.397Z,22.30
2022-08-31T20:55:09.293Z,22.20
2022-08-31T20:57:40.881Z,22.30
2022-08-31T21:00:11.045Z,22.30
2022-08-31T21:02:40.567Z,22.30
2022-08-31T21:07:59.553Z,22.30
2022-08-31T21:10:36.457Z,22.30
2022-08-31T21:13:10.490Z,22.20
2022-08-31T21:15:42.881Z,22.20
2022-08-31T21:18:11.345Z,22.20
2022-08-31T21:20:39.767Z,22.20
2022-08-31T21:23:09.789Z,22.20
2022-08-31T21:25:44.990Z,22.30
2022-08-31T21:28:17.244Z,22.20
2022-08-31T21:30:47.168Z,22.20
2022-08-31T21:33:15.552Z,22.20
2022-08-31T21:35:43.883Z,22.20
2022-08-31T21:38:12.937Z,22.10
2022-08-31T21:40:48.766Z,22.00
2022-08-31T21:43:18.899Z,22.10
2022-08-31T21:45:48.146Z,22.00
2022-08-31T21:48:23.875Z,22.00
2022-08-31T21:50:54.712Z,22.00
2022-08-31T21:53:23.187Z,22.00
2022-08-31T21:55:51.375Z,21.90
2022-08-31T21:58:21.062Z,21.90
2022-08-31T22:00:50.074Z,22.00
2022-08-31T22:03:22.507Z,22.00
2022-08-31T22:05:50.936Z,21.80
2022-08-31T22:08:19.887Z,21.90
2022-08-31T22:10:48.992Z,21.80
2022-08-31T22:13:17.757Z,21.80
2022-08-31T22:15:48.069Z,21.70
2022-08-31T22:21:05.921Z,21.70
2022-08-31T22:23:35.907Z,21.70
2022-08-31T22:26:04.936Z,21.70
2022-08-31T22:28:34.579Z,21.70
2022-08-31T22:31:04.927Z,21.70
2022-08-31T22:33:33.412Z,21.60
2022-08-31T22:36:01.807Z,21.70
2022-08-31T22:38:30.531Z,21.60
2022-08-31T22:40:59.187Z,21.60
2022-08-31T22:43:27.913Z,21.60
2022-08-31T22:45:56.272Z,21.60
2022-08-31T22:48:26.131Z,21.60
2022-08-31T22:50:54.391Z,21.60
2022-08-31T22:53:22.818Z,21.60
2022-08-31T22:55:51.129Z,21.60
2022-08-31T22:58:19.652Z,21.50
2022-08-31T23:00:48.239Z,21.50
2022-08-31T23:03:16.747Z,21.50
2022-08-31T23:05:46.270Z,21.50
2022-08-31T23:08:15.009Z,21.50
2022-08-31T23:10:44.450Z,21.40
2022-08-31T23:13:12.683Z,21.50
2022-08-31T23:15:41.586Z,21.50
2022-08-31T23:18:10.674Z,21.50
2022-08-31T23:20:41.786Z,21.40
2022-08-31T23:23:12.195Z,21.40
2022-08-31T23:25:41.785Z,21.50
2022-08-31T23:28:10.221Z,21.40
2022-08-31T23:30:44.714Z,21.40
2022-08-31T23:33:13.041Z,21.40
2022-08-31T23:35:43.246Z,21.40
2022-08-31T23:38:12.861Z,21.30
2022-08-31T23:40:41.340Z,21.40
2022-08-31T23:43:10.953Z,21.40
2022-08-31T23:45:40.917Z,21.30
2022-08-31T23:48:09.431Z,21.30
2022-08-31T23:50:37.624Z,21.40
2022-08-31T23:53:17.346Z,21.30
2022-08-31T23:55:47.892Z,21.30
2022-08-31T23:58:17.522Z,21.30
